sensor_id;sensor_type;location;lat;lon;timestamp;temperature;humidity
23081;DHT22;11708;50.570;8.532;2023-04-06T00:01:34;2.20;99.90
23081;DHT22;11708;50.570;8.532;2023-04-06T00:03:59;2.10;99.90
23081;DHT22;11708;50.570;8.532;2023-04-06T00:06:25;2.10;99.90
23081;DHT22;11708;50.570;8.532;2023-04-06T00:08:51;2.00;99.90
23081;DHT22;11708;50.570;8.532;2023-04-06T00:11:18;2.00;99.90
23081;DHT22;11708;50.570;8.532;2023-04-06T00:13:45;2.00;99.90
23081;DHT22;11708;50.570;8.532;2023-04-06T00:16:10;2.00;99.90
23081;DHT22;11708;50.570;8.532;2023-04-06T00:18:36;1.90;99.90
23081;DHT22;11708;50.570;8.532;2023-04-06T00:21:02;1.80;99.90
23081;DHT22;11708;50.570;8.532;2023-04-06T00:23:28;1.80;99.90
23081;DHT22;11708;50.570;8.532;2023-04-06T00:25:53;1.70;99.90
23081;DHT22;11708;50.570;8.532;2023-04-06T00:28:19;1.70;99.90
23081;DHT22;11708;50.570;8.532;2023-04-06T00:30:50;1.70;99.90
23081;DHT22;11708;50.570;8.532;2023-04-06T00:33:21;1.70;99.90
23081;DHT22;11708;50.570;8.532;2023-04-06T00:35:46;1.70;99.90
23081;DHT22;11708;50.570;8.532;2023-04-06T00:38:13;1.70;99.90
23081;DHT22;11708;50.570;8.532;2023-04-06T00:40:39;1.60;99.90
23081;DHT22;11708;50.570;8.532;2023-04-06T00:43:06;1.60;99.90
23081;DHT22;11708;50.570;8.532;2023-04-06T00:45:32;2.10;99.90
23081;DHT22;11708;50.570;8.532;2023-04-06T00:47:58;1.60;99.90
23081;DHT22;11708;50.570;8.532;2023-04-06T00:50:24;1.50;99.90
23081;DHT22;11708;50.570;8.532;2023-04-06T00:52:50;1.50;99.90
23081;DHT22;11708;50.570;8.532;2023-04-06T00:55:15;1.40;99.90
23081;DHT22;11708;50.570;8.532;2023-04-06T00:57:41;1.40;99.90
23081;DHT22;11708;50.570;8.532;2023-04-06T01:00:07;1.30;99.90
23081;DHT22;11708;50.570;8.532;2023-04-06T01:02:33;1.20;99.90
23081;DHT22;11708;50.570;8.532;2023-04-06T01:04:58;1.20;99.90
23081;DHT22;11708;50.570;8.532;2023-04-06T01:07:24;1.10;99.90
23081;DHT22;11708;50.570;8.532;2023-04-06T01:09:50;1.10;99.90
23081;DHT22;11708;50.570;8.532;2023-04-06T01:12:15;1.10;99.90
23081;DHT22;11708;50.570;8.532;2023-04-06T01:14:41;1.10;99.90
23081;DHT22;11708;50.570;8.532;2023-04-06T01:17:07;1.10;99.90
23081;DHT22;11708;50.570;8.532;2023-04-06T01:19:32;1.00;99.90
23081;DHT22;11708;50.570;8.532;2023-04-06T01:21:58;1.00;99.90
23081;DHT22;11708;50.570;8.532;2023-04-06T01:24:23;1.00;99.90
23081;DHT22;11708;50.570;8.532;2023-04-06T01:26:49;0.80;99.90
23081;DHT22;11708;50.570;8.532;2023-04-06T01:29:15;1.00;99.90
23081;DHT22;11708;50.570;8.532;2023-04-06T01:31:41;0.90;99.90
23081;DHT22;11708;50.570;8.532;2023-04-06T01:34:07;0.90;99.90
23081;DHT22;11708;50.570;8.532;2023-04-06T01:36:33;0.90;99.90
23081;DHT22;11708;50.570;8.532;2023-04-06T01:38:58;0.90;99.90
23081;DHT22;11708;50.570;8.532;2023-04-06T01:41:25;0.80;99.90
23081;DHT22;11708;50.570;8.532;2023-04-06T01:43:51;0.80;99.90
23081;DHT22;11708;50.570;8.532;2023-04-06T01:46:20;0.80;99.90
23081;DHT22;11708;50.570;8.532;2023-04-06T01:48:45;0.70;99.90
23081;DHT22;11708;50.570;8.532;2023-04-06T01:51:11;0.70;99.90
23081;DHT22;11708;50.570;8.532;2023-04-06T01:53:36;0.60;99.90
23081;DHT22;11708;50.570;8.532;2023-04-06T01:56:02;0.60;99.90
23081;DHT22;11708;50.570;8.532;2023-04-06T01:58:27;0.60;99.90
23081;DHT22;11708;50.570;8.532;2023-04-06T02:00:53;0.50;99.90
23081;DHT22;11708;50.570;8.532;2023-04-06T02:03:19;0.60;99.90
23081;DHT22;11708;50.570;8.532;2023-04-06T02:05:45;0.50;99.90
23081;DHT22;11708;50.570;8.532;2023-04-06T02:08:12;0.50;99.90
23081;DHT22;11708;50.570;8.532;2023-04-06T02:10:37;0.50;99.90
23081;DHT22;11708;50.570;8.532;2023-04-06T02:13:03;0.50;99.90
23081;DHT22;11708;50.570;8.532;2023-04-06T02:15:29;0.40;99.90
23081;DHT22;11708;50.570;8.532;2023-04-06T02:17:55;0.40;99.90
23081;DHT22;11708;50.570;8.532;2023-04-06T02:20:20;0.40;99.90
23081;DHT22;11708;50.570;8.532;2023-04-06T02:22:46;0.40;99.90
23081;DHT22;11708;50.570;8.532;2023-04-06T02:25:11;0.40;99.90
23081;DHT22;11708;50.570;8.532;2023-04-06T02:27:37;0.40;99.90
23081;DHT22;11708;50.570;8.532;2023-04-06T02:30:03;0.40;99.90
23081;DHT22;11708;50.570;8.532;2023-04-06T02:32:29;0.40;99.90
23081;DHT22;11708;50.570;8.532;2023-04-06T02:34:55;0.30;99.90
23081;DHT22;11708;50.570;8.532;2023-04-06T02:37:20;0.30;99.90
23081;DHT22;11708;50.570;8.532;2023-04-06T02:39:47;0.30;99.90
23081;DHT22;11708;50.570;8.532;2023-04-06T02:42:12;0.40;99.90
23081;DHT22;11708;50.570;8.532;2023-04-06T02:44:40;0.30;99.90
23081;DHT22;11708;50.570;8.532;2023-04-06T02:47:06;0.30;99.90
23081;DHT22;11708;50.570;8.532;2023-04-06T02:49:31;0.30;99.90
23081;DHT22;11708;50.570;8.532;2023-04-06T02:51:57;-0.10;99.90
23081;DHT22;11708;50.570;8.532;2023-04-06T02:54:22;0.20;99.90
23081;DHT22;11708;50.570;8.532;2023-04-06T02:56:48;0.10;99.90
23081;DHT22;11708;50.570;8.532;2023-04-06T02:59:13;0.10;99.90
23081;DHT22;11708;50.570;8.532;2023-04-06T03:01:39;0.10;99.90
23081;DHT22;11708;50.570;8.532;2023-04-06T03:04:04;0.10;99.90
23081;DHT22;11708;50.570;8.532;2023-04-06T03:06:30;0.00;99.90
23081;DHT22;11708;50.570;8.532;2023-04-06T03:08:56;0.00;99.90
23081;DHT22;11708;50.570;8.532;2023-04-06T03:11:22;0.00;99.90
23081;DHT22;11708;50.570;8.532;2023-04-06T03:13:47;0.00;99.90
23081;DHT22;11708;50.570;8.532;2023-04-06T03:16:13;0.00;99.90
23081;DHT22;11708;50.570;8.532;2023-04-06T03:18:38;0.00;99.90
23081;DHT22;11708;50.570;8.532;2023-04-06T03:21:04;-0.10;99.90
23081;DHT22;11708;50.570;8.532;2023-04-06T03:23:29;-0.10;99.90
23081;DHT22;11708;50.570;8.532;2023-04-06T03:25:55;-0.10;99.90
23081;DHT22;11708;50.570;8.532;2023-04-06T03:28:20;-0.20;99.90
23081;DHT22;11708;50.570;8.532;2023-04-06T03:30:46;-0.20;99.90
23081;DHT22;11708;50.570;8.532;2023-04-06T03:33:11;-0.20;99.90
23081;DHT22;11708;50.570;8.532;2023-04-06T03:35:37;-0.20;99.90
23081;DHT22;11708;50.570;8.532;2023-04-06T03:38:03;-0.20;99.90
23081;DHT22;11708;50.570;8.532;2023-04-06T03:40:30;-0.20;99.90
23081;DHT22;11708;50.570;8.532;2023-04-06T03:42:56;-0.20;99.90
23081;DHT22;11708;50.570;8.532;2023-04-06T03:45:21;-0.20;99.90
23081;DHT22;11708;50.570;8.532;2023-04-06T03:47:47;-0.30;99.90
23081;DHT22;11708;50.570;8.532;2023-04-06T03:50:12;-0.20;99.90
23081;DHT22;11708;50.570;8.532;2023-04-06T03:52:38;-0.30;99.90
23081;DHT22;11708;50.570;8.532;2023-04-06T03:55:04;-0.30;99.90
23081;DHT22;11708;50.570;8.532;2023-04-06T03:57:29;-0.30;99.90
23081;DHT22;11708;50.570;8.532;2023-04-06T03:59:55;-0.40;99.90
23081;DHT22;11708;50.570;8.532;2023-04-06T04:02:23;-0.40;99.90
23081;DHT22;11708;50.570;8.532;2023-04-06T04:04:49;-0.20;99.90
23081;DHT22;11708;50.570;8.532;2023-04-06T04:07:15;-0.40;99.90
23081;DHT22;11708;50.570;8.532;2023-04-06T04:09:40;-0.40;99.90
23081;DHT22;11708;50.570;8.532;2023-04-06T04:12:06;-0.40;99.90
23081;DHT22;11708;50.570;8.532;2023-04-06T04:14:31;-0.40;99.90
23081;DHT22;11708;50.570;8.532;2023-04-06T04:16:57;-0.60;99.90
23081;DHT22;11708;50.570;8.532;2023-04-06T04:19:23;-0.40;99.90
23081;DHT22;11708;50.570;8.532;2023-04-06T04:21:48;-0.50;99.90
23081;DHT22;11708;50.570;8.532;2023-04-06T04:24:14;-0.50;99.90
23081;DHT22;11708;50.570;8.532;2023-04-06T04:26:40;-0.30;99.90
23081;DHT22;11708;50.570;8.532;2023-04-06T04:29:05;-0.60;99.90
23081;DHT22;11708;50.570;8.532;2023-04-06T04:31:31;-0.50;99.90
23081;DHT22;11708;50.570;8.532;2023-04-06T04:33:58;-0.50;99.90
23081;DHT22;11708;50.570;8.532;2023-04-06T04:36:23;-0.60;99.90
23081;DHT22;11708;50.570;8.532;2023-04-06T04:38:51;-0.60;99.90
23081;DHT22;11708;50.570;8.532;2023-04-06T04:41:16;-0.60;99.90
23081;DHT22;11708;50.570;8.532;2023-04-06T04:43:42;-0.70;99.90
23081;DHT22;11708;50.570;8.532;2023-04-06T04:46:07;-0.70;99.90
23081;DHT22;11708;50.570;8.532;2023-04-06T04:48:33;-0.70;99.90
23081;DHT22;11708;50.570;8.532;2023-04-06T04:50:58;-0.70;99.90
23081;DHT22;11708;50.570;8.532;2023-04-06T04:53:24;-0.70;99.90
23081;DHT22;11708;50.570;8.532;2023-04-06T04:55:50;-0.70;99.90
23081;DHT22;11708;50.570;8.532;2023-04-06T04:58:15;-0.80;99.90
23081;DHT22;11708;50.570;8.532;2023-04-06T05:00:45;-0.80;99.90
23081;DHT22;11708;50.570;8.532;2023-04-06T05:03:20;-0.80;99.90
23081;DHT22;11708;50.570;8.532;2023-04-06T05:05:47;-0.80;99.90
23081;DHT22;11708;50.570;8.532;2023-04-06T05:08:13;-0.80;99.90
23081;DHT22;11708;50.570;8.532;2023-04-06T05:10:39;-0.80;99.90
23081;DHT22;11708;50.570;8.532;2023-04-06T05:13:04;-0.80;99.90
23081;DHT22;11708;50.570;8.532;2023-04-06T05:15:30;-0.80;99.90
23081;DHT22;11708;50.570;8.532;2023-04-06T05:17:56;-0.70;99.90
23081;DHT22;11708;50.570;8.532;2023-04-06T05:20:21;-0.70;99.90
23081;DHT22;11708;50.570;8.532;2023-04-06T05:22:47;-0.70;99.90
23081;DHT22;11708;50.570;8.532;2023-04-06T05:25:13;-0.70;99.90
23081;DHT22;11708;50.570;8.532;2023-04-06T05:27:39;-0.70;99.90
23081;DHT22;11708;50.570;8.532;2023-04-06T05:30:06;-0.70;99.90
23081;DHT22;11708;50.570;8.532;2023-04-06T05:32:32;-0.70;99.90
23081;DHT22;11708;50.570;8.532;2023-04-06T05:34:58;-0.70;99.90
23081;DHT22;11708;50.570;8.532;2023-04-06T05:37:23;-0.70;99.90
23081;DHT22;11708;50.570;8.532;2023-04-06T05:39:49;-0.60;99.90
23081;DHT22;11708;50.570;8.532;2023-04-06T05:42:15;-0.60;99.90
23081;DHT22;11708;50.570;8.532;2023-04-06T05:44:41;-0.60;99.90
23081;DHT22;11708;50.570;8.532;2023-04-06T05:47:06;-0.60;99.90
23081;DHT22;11708;50.570;8.532;2023-04-06T05:49:32;-0.50;99.90
23081;DHT22;11708;50.570;8.532;2023-04-06T05:51:57;-0.50;99.90
23081;DHT22;11708;50.570;8.532;2023-04-06T05:54:24;-0.40;99.90
23081;DHT22;11708;50.570;8.532;2023-04-06T05:56:49;-0.30;99.90
23081;DHT22;11708;50.570;8.532;2023-04-06T05:59:15;-0.40;99.90
23081;DHT22;11708;50.570;8.532;2023-04-06T06:01:40;-0.30;99.90
23081;DHT22;11708;50.570;8.532;2023-04-06T06:04:06;-0.30;99.90
23081;DHT22;11708;50.570;8.532;2023-04-06T06:06:31;-0.20;99.90
23081;DHT22;11708;50.570;8.532;2023-04-06T06:08:57;-0.10;99.90
23081;DHT22;11708;50.570;8.532;2023-04-06T06:11:26;0.00;99.90
23081;DHT22;11708;50.570;8.532;2023-04-06T06:13:52;0.10;99.90
23081;DHT22;11708;50.570;8.532;2023-04-06T06:16:18;0.20;99.90
23081;DHT22;11708;50.570;8.532;2023-04-06T06:18:44;0.20;99.90
23081;DHT22;11708;50.570;8.532;2023-04-06T06:21:10;0.30;99.90
23081;DHT22;11708;50.570;8.532;2023-04-06T06:23:37;0.30;99.90
23081;DHT22;11708;50.570;8.532;2023-04-06T06:26:03;0.30;99.90
23081;DHT22;11708;50.570;8.532;2023-04-06T06:28:29;0.40;99.90
23081;DHT22;11708;50.570;8.532;2023-04-06T06:30:55;0.40;99.90
23081;DHT22;11708;50.570;8.532;2023-04-06T06:33:20;0.40;99.90
23081;DHT22;11708;50.570;8.532;2023-04-06T06:35:46;0.50;99.90
23081;DHT22;11708;50.570;8.532;2023-04-06T06:38:11;0.50;99.90
23081;DHT22;11708;50.570;8.532;2023-04-06T06:40:37;0.60;99.90
23081;DHT22;11708;50.570;8.532;2023-04-06T06:43:02;0.70;99.90
23081;DHT22;11708;50.570;8.532;2023-04-06T06:45:28;0.80;99.90
23081;DHT22;11708;50.570;8.532;2023-04-06T06:47:55;0.90;99.90
23081;DHT22;11708;50.570;8.532;2023-04-06T06:50:21;1.00;99.90
23081;DHT22;11708;50.570;8.532;2023-04-06T06:52:46;1.10;99.90
23081;DHT22;11708;50.570;8.532;2023-04-06T06:55:12;1.20;99.90
23081;DHT22;11708;50.570;8.532;2023-04-06T06:57:37;1.20;99.90
23081;DHT22;11708;50.570;8.532;2023-04-06T07:00:04;1.30;99.90
23081;DHT22;11708;50.570;8.532;2023-04-06T07:02:30;1.30;99.90
23081;DHT22;11708;50.570;8.532;2023-04-06T07:04:57;1.50;99.90
23081;DHT22;11708;50.570;8.532;2023-04-06T07:07:22;1.50;99.90
23081;DHT22;11708;50.570;8.532;2023-04-06T07:09:48;1.60;99.90
23081;DHT22;11708;50.570;8.532;2023-04-06T07:12:13;1.70;99.90
23081;DHT22;11708;50.570;8.532;2023-04-06T07:14:39;1.80;99.90
23081;DHT22;11708;50.570;8.532;2023-04-06T07:17:04;1.90;99.90
23081;DHT22;11708;50.570;8.532;2023-04-06T07:19:30;2.00;99.90
23081;DHT22;11708;50.570;8.532;2023-04-06T07:21:57;2.10;99.90
23081;DHT22;11708;50.570;8.532;2023-04-06T07:24:22;2.20;99.90
23081;DHT22;11708;50.570;8.532;2023-04-06T07:26:48;2.30;99.90
23081;DHT22;11708;50.570;8.532;2023-04-06T07:29:13;2.40;99.90
23081;DHT22;11708;50.570;8.532;2023-04-06T07:31:39;2.60;99.90
23081;DHT22;11708;50.570;8.532;2023-04-06T07:34:04;2.60;99.90
23081;DHT22;11708;50.570;8.532;2023-04-06T07:36:30;2.70;99.90
23081;DHT22;11708;50.570;8.532;2023-04-06T07:38:56;2.90;99.90
23081;DHT22;11708;50.570;8.532;2023-04-06T07:41:21;2.90;99.90
23081;DHT22;11708;50.570;8.532;2023-04-06T07:43:47;3.00;99.90
23081;DHT22;11708;50.570;8.532;2023-04-06T07:46:12;3.20;99.90
23081;DHT22;11708;50.570;8.532;2023-04-06T07:48:38;3.30;99.90
23081;DHT22;11708;50.570;8.532;2023-04-06T07:51:04;3.40;99.90
23081;DHT22;11708;50.570;8.532;2023-04-06T07:53:30;3.50;99.90
23081;DHT22;11708;50.570;8.532;2023-04-06T07:55:57;3.60;99.90
23081;DHT22;11708;50.570;8.532;2023-04-06T07:58:22;3.70;99.90
23081;DHT22;11708;50.570;8.532;2023-04-06T08:00:48;3.80;99.90
23081;DHT22;11708;50.570;8.532;2023-04-06T08:03:13;3.90;99.90
23081;DHT22;11708;50.570;8.532;2023-04-06T08:05:39;4.00;99.90
23081;DHT22;11708;50.570;8.532;2023-04-06T08:08:04;4.10;99.90
23081;DHT22;11708;50.570;8.532;2023-04-06T08:10:30;4.20;99.90
23081;DHT22;11708;50.570;8.532;2023-04-06T08:12:56;4.30;99.90
23081;DHT22;11708;50.570;8.532;2023-04-06T08:15:21;4.40;99.90
23081;DHT22;11708;50.570;8.532;2023-04-06T08:17:47;4.50;99.90
23081;DHT22;11708;50.570;8.532;2023-04-06T08:20:12;4.60;99.90
23081;DHT22;11708;50.570;8.532;2023-04-06T08:22:38;4.70;99.90
23081;DHT22;11708;50.570;8.532;2023-04-06T08:25:04;4.80;99.90
23081;DHT22;11708;50.570;8.532;2023-04-06T08:27:30;4.90;99.90
23081;DHT22;11708;50.570;8.532;2023-04-06T08:29:55;5.00;99.90
23081;DHT22;11708;50.570;8.532;2023-04-06T08:32:21;5.20;99.90
23081;DHT22;11708;50.570;8.532;2023-04-06T08:34:46;5.20;99.90
23081;DHT22;11708;50.570;8.532;2023-04-06T08:37:12;5.30;99.90
23081;DHT22;11708;50.570;8.532;2023-04-06T08:39:37;5.40;99.90
23081;DHT22;11708;50.570;8.532;2023-04-06T08:42:03;5.50;99.90
23081;DHT22;11708;50.570;8.532;2023-04-06T08:44:30;5.60;99.90
23081;DHT22;11708;50.570;8.532;2023-04-06T08:46:57;6.10;99.90
23081;DHT22;11708;50.570;8.532;2023-04-06T08:49:24;5.80;99.90
23081;DHT22;11708;50.570;8.532;2023-04-06T08:51:50;5.90;99.90
23081;DHT22;11708;50.570;8.532;2023-04-06T08:54:16;6.00;99.90
23081;DHT22;11708;50.570;8.532;2023-04-06T08:56:42;6.30;99.90
23081;DHT22;11708;50.570;8.532;2023-04-06T08:59:09;6.20;99.90
23081;DHT22;11708;50.570;8.532;2023-04-06T09:01:39;6.40;99.90
23081;DHT22;11708;50.570;8.532;2023-04-06T09:04:07;6.50;99.90
23081;DHT22;11708;50.570;8.532;2023-04-06T09:06:36;6.60;99.90
23081;DHT22;11708;50.570;8.532;2023-04-06T09:09:02;6.70;99.90
23081;DHT22;11708;50.570;8.532;2023-04-06T09:11:28;6.80;99.90
23081;DHT22;11708;50.570;8.532;2023-04-06T09:13:55;6.90;99.90
23081;DHT22;11708;50.570;8.532;2023-04-06T09:16:22;7.10;99.90
23081;DHT22;11708;50.570;8.532;2023-04-06T09:18:49;7.10;99.90
23081;DHT22;11708;50.570;8.532;2023-04-06T09:21:17;7.20;99.90
23081;DHT22;11708;50.570;8.532;2023-04-06T09:23:43;7.30;99.90
23081;DHT22;11708;50.570;8.532;2023-04-06T09:26:17;7.40;99.90
23081;DHT22;11708;50.570;8.532;2023-04-06T09:28:53;7.50;99.90
23081;DHT22;11708;50.570;8.532;2023-04-06T09:31:30;7.60;99.90
23081;DHT22;11708;50.570;8.532;2023-04-06T09:33:59;7.80;99.90
23081;DHT22;11708;50.570;8.532;2023-04-06T09:36:33;7.90;99.90
23081;DHT22;11708;50.570;8.532;2023-04-06T09:39:04;8.00;99.90
23081;DHT22;11708;50.570;8.532;2023-04-06T09:41:37;8.20;99.90
23081;DHT22;11708;50.570;8.532;2023-04-06T09:44:09;8.30;99.90
23081;DHT22;11708;50.570;8.532;2023-04-06T09:46:45;8.40;99.90
23081;DHT22;11708;50.570;8.532;2023-04-06T09:49:12;8.50;99.90
23081;DHT22;11708;50.570;8.532;2023-04-06T09:51:46;8.70;99.90
23081;DHT22;11708;50.570;8.532;2023-04-06T09:54:22;8.80;99.90
23081;DHT22;11708;50.570;8.532;2023-04-06T09:57:11;9.20;99.90
23081;DHT22;11708;50.570;8.532;2023-04-06T09:59:56;9.00;99.90
23081;DHT22;11708;50.570;8.532;2023-04-06T10:02:34;9.20;99.90
23081;DHT22;11708;50.570;8.532;2023-04-06T10:05:06;9.30;99.90
23081;DHT22;11708;50.570;8.532;2023-04-06T10:07:36;9.40;99.90
23081;DHT22;11708;50.570;8.532;2023-04-06T10:10:03;9.50;99.90
23081;DHT22;11708;50.570;8.532;2023-04-06T10:12:30;9.60;99.90
23081;DHT22;11708;50.570;8.532;2023-04-06T10:14:57;9.70;99.90
23081;DHT22;11708;50.570;8.532;2023-04-06T10:17:23;9.80;99.90
23081;DHT22;11708;50.570;8.532;2023-04-06T10:19:51;9.90;99.90
23081;DHT22;11708;50.570;8.532;2023-04-06T10:22:36;10.00;99.90
23081;DHT22;11708;50.570;8.532;2023-04-06T10:25:04;10.20;99.90
23081;DHT22;11708;50.570;8.532;2023-04-06T10:27:30;10.30;99.90
23081;DHT22;11708;50.570;8.532;2023-04-06T10:30:06;10.40;99.90
23081;DHT22;11708;50.570;8.532;2023-04-06T10:32:36;10.60;99.90
23081;DHT22;11708;50.570;8.532;2023-04-06T10:35:10;10.80;99.90
23081;DHT22;11708;50.570;8.532;2023-04-06T10:37:53;10.90;99.90
23081;DHT22;11708;50.570;8.532;2023-04-06T10:40:23;11.20;99.90
23081;DHT22;11708;50.570;8.532;2023-04-06T10:42:50;11.30;99.90
23081;DHT22;11708;50.570;8.532;2023-04-06T10:45:23;11.60;99.90
23081;DHT22;11708;50.570;8.532;2023-04-06T10:47:52;11.80;99.90
23081;DHT22;11708;50.570;8.532;2023-04-06T10:50:18;12.00;99.90
23081;DHT22;11708;50.570;8.532;2023-04-06T10:52:45;12.30;99.90
23081;DHT22;11708;50.570;8.532;2023-04-06T10:55:13;12.50;99.90
23081;DHT22;11708;50.570;8.532;2023-04-06T10:57:40;12.70;99.90
23081;DHT22;11708;50.570;8.532;2023-04-06T11:00:07;12.90;99.90
23081;DHT22;11708;50.570;8.532;2023-04-06T11:02:36;13.10;99.90
23081;DHT22;11708;50.570;8.532;2023-04-06T11:05:03;13.30;99.90
23081;DHT22;11708;50.570;8.532;2023-04-06T11:07:29;13.60;99.90
23081;DHT22;11708;50.570;8.532;2023-04-06T11:09:56;13.80;99.90
23081;DHT22;11708;50.570;8.532;2023-04-06T11:12:26;13.80;99.90
23081;DHT22;11708;50.570;8.532;2023-04-06T11:14:57;13.90;99.90
23081;DHT22;11708;50.570;8.532;2023-04-06T11:17:30;14.10;99.90
23081;DHT22;11708;50.570;8.532;2023-04-06T11:19:57;14.40;99.90
23081;DHT22;11708;50.570;8.532;2023-04-06T11:22:23;14.80;99.90
23081;DHT22;11708;50.570;8.532;2023-04-06T11:24:48;15.00;99.90
23081;DHT22;11708;50.570;8.532;2023-04-06T11:27:15;15.20;99.90
23081;DHT22;11708;50.570;8.532;2023-04-06T11:29:42;15.60;98.20
23081;DHT22;11708;50.570;8.532;2023-04-06T11:32:08;15.80;97.60
23081;DHT22;11708;50.570;8.532;2023-04-06T11:34:35;16.30;96.40
23081;DHT22;11708;50.570;8.532;2023-04-06T11:37:03;16.60;94.50
23081;DHT22;11708;50.570;8.532;2023-04-06T11:39:31;16.80;91.90
23081;DHT22;11708;50.570;8.532;2023-04-06T11:42:01;16.70;91.00
23081;DHT22;11708;50.570;8.532;2023-04-06T11:44:43;16.70;90.40
23081;DHT22;11708;50.570;8.532;2023-04-06T11:47:11;16.60;89.60
23081;DHT22;11708;50.570;8.532;2023-04-06T11:49:41;16.50;88.30
23081;DHT22;11708;50.570;8.532;2023-04-06T11:52:15;16.40;85.00
23081;DHT22;11708;50.570;8.532;2023-04-06T11:54:41;16.30;85.00
23081;DHT22;11708;50.570;8.532;2023-04-06T11:57:08;16.20;85.50
23081;DHT22;11708;50.570;8.532;2023-04-06T11:59:34;16.30;85.70
23081;DHT22;11708;50.570;8.532;2023-04-06T12:02:01;16.40;86.20
23081;DHT22;11708;50.570;8.532;2023-04-06T12:04:27;16.60;85.20
23081;DHT22;11708;50.570;8.532;2023-04-06T12:06:53;16.70;82.70
23081;DHT22;11708;50.570;8.532;2023-04-06T12:09:19;16.80;80.30
23081;DHT22;11708;50.570;8.532;2023-04-06T12:11:44;16.80;76.10
23081;DHT22;11708;50.570;8.532;2023-04-06T12:14:11;16.60;75.90
23081;DHT22;11708;50.570;8.532;2023-04-06T12:16:36;16.40;74.30
23081;DHT22;11708;50.570;8.532;2023-04-06T12:19:03;16.30;75.10
23081;DHT22;11708;50.570;8.532;2023-04-06T12:21:28;16.00;74.70
23081;DHT22;11708;50.570;8.532;2023-04-06T12:23:56;15.80;74.50
23081;DHT22;11708;50.570;8.532;2023-04-06T12:26:22;15.80;76.10
23081;DHT22;11708;50.570;8.532;2023-04-06T12:28:49;15.90;77.10
23081;DHT22;11708;50.570;8.532;2023-04-06T12:31:19;15.90;75.10
23081;DHT22;11708;50.570;8.532;2023-04-06T12:33:50;15.70;75.80
23081;DHT22;11708;50.570;8.532;2023-04-06T12:36:19;15.80;75.60
23081;DHT22;11708;50.570;8.532;2023-04-06T12:38:50;15.80;76.90
23081;DHT22;11708;50.570;8.532;2023-04-06T12:41:18;16.00;77.30
23081;DHT22;11708;50.570;8.532;2023-04-06T12:43:44;16.30;76.70
23081;DHT22;11708;50.570;8.532;2023-04-06T12:46:11;16.60;74.70
23081;DHT22;11708;50.570;8.532;2023-04-06T12:48:37;16.70;76.30
23081;DHT22;11708;50.570;8.532;2023-04-06T12:51:04;16.90;73.70
23081;DHT22;11708;50.570;8.532;2023-04-06T12:53:31;17.00;73.20
23081;DHT22;11708;50.570;8.532;2023-04-06T12:55:57;16.50;71.60
23081;DHT22;11708;50.570;8.532;2023-04-06T12:58:24;16.20;72.50
23081;DHT22;11708;50.570;8.532;2023-04-06T13:00:52;15.80;72.90
23081;DHT22;11708;50.570;8.532;2023-04-06T13:03:18;15.50;74.50
23081;DHT22;11708;50.570;8.532;2023-04-06T13:05:45;15.20;75.40
23081;DHT22;11708;50.570;8.532;2023-04-06T13:08:11;15.00;76.20
23081;DHT22;11708;50.570;8.532;2023-04-06T13:10:38;14.80;77.00
23081;DHT22;11708;50.570;8.532;2023-04-06T13:13:03;14.50;77.60
23081;DHT22;11708;50.570;8.532;2023-04-06T13:15:29;14.40;78.00
23081;DHT22;11708;50.570;8.532;2023-04-06T13:17:55;14.30;77.70
23081;DHT22;11708;50.570;8.532;2023-04-06T13:20:20;14.30;79.50
23081;DHT22;11708;50.570;8.532;2023-04-06T13:22:46;14.30;79.10
23081;DHT22;11708;50.570;8.532;2023-04-06T13:25:11;14.30;79.00
23081;DHT22;11708;50.570;8.532;2023-04-06T13:27:37;14.10;79.20
23081;DHT22;11708;50.570;8.532;2023-04-06T13:30:03;14.20;78.80
23081;DHT22;11708;50.570;8.532;2023-04-06T13:32:30;14.20;79.50
23081;DHT22;11708;50.570;8.532;2023-04-06T13:34:56;14.30;79.60
23081;DHT22;11708;50.570;8.532;2023-04-06T13:37:22;14.30;79.50
23081;DHT22;11708;50.570;8.532;2023-04-06T13:39:48;14.30;79.90
23081;DHT22;11708;50.570;8.532;2023-04-06T13:42:13;14.50;79.90
23081;DHT22;11708;50.570;8.532;2023-04-06T13:44:39;14.60;79.00
23081;DHT22;11708;50.570;8.532;2023-04-06T13:47:04;14.60;78.60
23081;DHT22;11708;50.570;8.532;2023-04-06T13:49:31;14.50;78.80
23081;DHT22;11708;50.570;8.532;2023-04-06T13:51:56;14.70;79.20
23081;DHT22;11708;50.570;8.532;2023-04-06T13:54:22;14.70;78.30
23081;DHT22;11708;50.570;8.532;2023-04-06T13:56:47;15.30;84.40
23081;DHT22;11708;50.570;8.532;2023-04-06T13:59:13;15.00;79.50
23081;DHT22;11708;50.570;8.532;2023-04-06T14:01:38;15.30;78.60
23081;DHT22;11708;50.570;8.532;2023-04-06T14:04:04;15.10;77.10
23081;DHT22;11708;50.570;8.532;2023-04-06T14:06:29;15.10;79.20
23081;DHT22;11708;50.570;8.532;2023-04-06T14:08:55;15.20;79.20
23081;DHT22;11708;50.570;8.532;2023-04-06T14:11:22;15.30;77.70
23081;DHT22;11708;50.570;8.532;2023-04-06T14:13:47;15.20;78.30
23081;DHT22;11708;50.570;8.532;2023-04-06T14:16:13;15.10;78.60
23081;DHT22;11708;50.570;8.532;2023-04-06T14:18:39;15.00;77.80
23081;DHT22;11708;50.570;8.532;2023-04-06T14:21:05;14.90;78.70
23081;DHT22;11708;50.570;8.532;2023-04-06T14:23:31;14.70;78.90
23081;DHT22;11708;50.570;8.532;2023-04-06T14:26:04;14.70;80.70
23081;DHT22;11708;50.570;8.532;2023-04-06T14:28:32;14.60;81.20
23081;DHT22;11708;50.570;8.532;2023-04-06T14:30:59;14.40;81.00
23081;DHT22;11708;50.570;8.532;2023-04-06T14:33:26;14.20;81.60
23081;DHT22;11708;50.570;8.532;2023-04-06T14:35:51;14.10;82.60
23081;DHT22;11708;50.570;8.532;2023-04-06T14:38:17;14.00;84.70
23081;DHT22;11708;50.570;8.532;2023-04-06T14:40:42;14.00;84.80
23081;DHT22;11708;50.570;8.532;2023-04-06T14:43:08;14.10;83.60
23081;DHT22;11708;50.570;8.532;2023-04-06T14:45:34;14.00;84.50
23081;DHT22;11708;50.570;8.532;2023-04-06T14:48:04;14.10;84.50
23081;DHT22;11708;50.570;8.532;2023-04-06T14:50:32;14.10;84.30
23081;DHT22;11708;50.570;8.532;2023-04-06T14:52:58;14.00;84.70
23081;DHT22;11708;50.570;8.532;2023-04-06T14:55:23;14.00;85.20
23081;DHT22;11708;50.570;8.532;2023-04-06T14:57:49;14.00;85.10
23081;DHT22;11708;50.570;8.532;2023-04-06T15:00:15;14.00;85.90
23081;DHT22;11708;50.570;8.532;2023-04-06T15:02:41;13.90;84.90
23081;DHT22;11708;50.570;8.532;2023-04-06T15:05:08;13.80;85.70
23081;DHT22;11708;50.570;8.532;2023-04-06T15:07:34;13.80;84.80
23081;DHT22;11708;50.570;8.532;2023-04-06T15:10:00;13.70;85.40
23081;DHT22;11708;50.570;8.532;2023-04-06T15:12:25;13.70;84.30
23081;DHT22;11708;50.570;8.532;2023-04-06T15:14:51;13.70;85.10
23081;DHT22;11708;50.570;8.532;2023-04-06T15:17:16;13.60;84.70
23081;DHT22;11708;50.570;8.532;2023-04-06T15:19:42;13.60;86.20
23081;DHT22;11708;50.570;8.532;2023-04-06T15:22:08;13.50;85.20
23081;DHT22;11708;50.570;8.532;2023-04-06T15:24:33;13.40;85.80
23081;DHT22;11708;50.570;8.532;2023-04-06T15:26:59;13.40;85.20
23081;DHT22;11708;50.570;8.532;2023-04-06T15:29:25;13.40;85.90
23081;DHT22;11708;50.570;8.532;2023-04-06T15:31:50;13.40;85.90
23081;DHT22;11708;50.570;8.532;2023-04-06T15:34:16;13.50;86.60